sensor_id;sensor_type;location;lat;lon;timestamp;temperature;humidity
3758;DHT22;1894;51.038;13.692;2022-08-19T00:02:02;21.70;99.90
3758;DHT22;1894;51.038;13.692;2022-08-19T00:04:32;21.90;99.90
3758;DHT22;1894;51.038;13.692;2022-08-19T00:07:03;21.80;99.90
3758;DHT22;1894;51.038;13.692;2022-08-19T00:09:30;21.80;99.90
3758;DHT22;1894;51.038;13.692;2022-08-19T00:11:58;21.80;99.90
3758;DHT22;1894;51.038;13.692;2022-08-19T00:14:26;21.70;99.90
3758;DHT22;1894;51.038;13.692;2022-08-19T00:16:53;21.70;99.90
3758;DHT22;1894;51.038;13.692;2022-08-19T00:19:22;21.80;99.90
3758;DHT22;1894;51.038;13.692;2022-08-19T00:21:51;21.70;99.90
3758;DHT22;1894;51.038;13.692;2022-08-19T00:24:18;21.80;99.90
3758;DHT22;1894;51.038;13.692;2022-08-19T00:26:46;21.70;99.90
3758;DHT22;1894;51.038;13.692;2022-08-19T00:29:16;21.60;99.90
3758;DHT22;1894;51.038;13.692;2022-08-19T00:31:45;21.60;99.90
3758;DHT22;1894;51.038;13.692;2022-08-19T00:34:13;21.60;99.90
3758;DHT22;1894;51.038;13.692;2022-08-19T00:36:41;21.60;99.90
3758;DHT22;1894;51.038;13.692;2022-08-19T00:39:09;21.60;99.90
3758;DHT22;1894;51.038;13.692;2022-08-19T00:41:36;21.60;99.90
3758;DHT22;1894;51.038;13.692;2022-08-19T00:44:18;21.80;99.90
3758;DHT22;1894;51.038;13.692;2022-08-19T00:46:54;21.60;99.90
3758;DHT22;1894;51.038;13.692;2022-08-19T00:52:02;21.60;99.90
3758;DHT22;1894;51.038;13.692;2022-08-19T00:54:31;21.70;99.90
3758;DHT22;1894;51.038;13.692;2022-08-19T00:57:02;21.60;99.90
3758;DHT22;1894;51.038;13.692;2022-08-19T00:59:31;21.60;99.90
3758;DHT22;1894;51.038;13.692;2022-08-19T01:02:19;21.50;99.90
3758;DHT22;1894;51.038;13.692;2022-08-19T01:04:46;21.50;99.90
3758;DHT22;1894;51.038;13.692;2022-08-19T01:07:13;21.60;99.90
3758;DHT22;1894;51.038;13.692;2022-08-19T01:09:45;21.70;99.90
3758;DHT22;1894;51.038;13.692;2022-08-19T01:12:13;21.60;99.90
3758;DHT22;1894;51.038;13.692;2022-08-19T01:14:40;21.60;99.90
3758;DHT22;1894;51.038;13.692;2022-08-19T01:17:09;21.60;99.90
3758;DHT22;1894;51.038;13.692;2022-08-19T01:19:40;21.50;99.90
3758;DHT22;1894;51.038;13.692;2022-08-19T01:22:18;21.50;99.90
3758;DHT22;1894;51.038;13.692;2022-08-19T01:24:56;21.50;99.90
3758;DHT22;1894;51.038;13.692;2022-08-19T01:27:25;21.50;99.90
3758;DHT22;1894;51.038;13.692;2022-08-19T01:29:55;21.40;99.90
3758;DHT22;1894;51.038;13.692;2022-08-19T01:32:23;21.40;99.90
3758;DHT22;1894;51.038;13.692;2022-08-19T01:35:00;21.40;99.90
3758;DHT22;1894;51.038;13.692;2022-08-19T01:37:28;21.50;99.90
3758;DHT22;1894;51.038;13.692;2022-08-19T01:39:57;21.60;99.90
3758;DHT22;1894;51.038;13.692;2022-08-19T01:42:24;21.50;99.90
3758;DHT22;1894;51.038;13.692;2022-08-19T01:44:57;21.40;99.90
3758;DHT22;1894;51.038;13.692;2022-08-19T01:47:24;21.30;99.90
3758;DHT22;1894;51.038;13.692;2022-08-19T01:49:51;21.40;99.90
3758;DHT22;1894;51.038;13.692;2022-08-19T01:52:19;21.40;99.90
3758;DHT22;1894;51.038;13.692;2022-08-19T01:54:46;21.50;99.90
3758;DHT22;1894;51.038;13.692;2022-08-19T01:57:13;21.40;99.90
3758;DHT22;1894;51.038;13.692;2022-08-19T01:59:42;21.50;99.90
3758;DHT22;1894;51.038;13.692;2022-08-19T02:02:10;21.40;99.90
3758;DHT22;1894;51.038;13.692;2022-08-19T02:04:38;21.30;99.90
3758;DHT22;1894;51.038;13.692;2022-08-19T02:07:06;21.40;99.90
3758;DHT22;1894;51.038;13.692;2022-08-19T02:09:35;21.30;99.90
3758;DHT22;1894;51.038;13.692;2022-08-19T02:12:03;21.40;99.90
3758;DHT22;1894;51.038;13.692;2022-08-19T02:14:30;21.50;99.90
3758;DHT22;1894;51.038;13.692;2022-08-19T02:16:57;21.50;99.90
3758;DHT22;1894;51.038;13.692;2022-08-19T02:19:24;21.40;99.90
3758;DHT22;1894;51.038;13.692;2022-08-19T02:21:51;21.50;99.90
3758;DHT22;1894;51.038;13.692;2022-08-19T02:24:18;21.30;99.90
3758;DHT22;1894;51.038;13.692;2022-08-19T02:26:46;21.40;99.90
3758;DHT22;1894;51.038;13.692;2022-08-19T02:29:13;21.40;99.90
3758;DHT22;1894;51.038;13.692;2022-08-19T02:31:40;21.50;99.90
3758;DHT22;1894;51.038;13.692;2022-08-19T02:34:07;21.40;99.90
3758;DHT22;1894;51.038;13.692;2022-08-19T02:36:34;21.60;99.90
3758;DHT22;1894;51.038;13.692;2022-08-19T02:39:01;21.50;99.90
3758;DHT22;1894;51.038;13.692;2022-08-19T02:41:31;21.60;99.90
3758;DHT22;1894;51.038;13.692;2022-08-19T02:44:00;21.50;99.90
3758;DHT22;1894;51.038;13.692;2022-08-19T02:46:48;21.60;99.90
3758;DHT22;1894;51.038;13.692;2022-08-19T02:49:18;21.60;99.90
3758;DHT22;1894;51.038;13.692;2022-08-19T02:51:46;21.60;99.90
3758;DHT22;1894;51.038;13.692;2022-08-19T02:54:14;21.60;99.90
3758;DHT22;1894;51.038;13.692;2022-08-19T02:56:42;21.60;99.90
3758;DHT22;1894;51.038;13.692;2022-08-19T02:59:10;21.60;99.90
3758;DHT22;1894;51.038;13.692;2022-08-19T03:01:40;21.50;99.90
3758;DHT22;1894;51.038;13.692;2022-08-19T03:04:11;21.60;99.90
3758;DHT22;1894;51.038;13.692;2022-08-19T03:06:40;21.60;99.90
3758;DHT22;1894;51.038;13.692;2022-08-19T03:09:08;21.60;99.90
3758;DHT22;1894;51.038;13.692;2022-08-19T03:11:37;21.50;99.90
3758;DHT22;1894;51.038;13.692;2022-08-19T03:14:05;21.50;99.90
3758;DHT22;1894;51.038;13.692;2022-08-19T03:16:45;21.40;99.90
3758;DHT22;1894;51.038;13.692;2022-08-19T03:19:15;21.30;99.90
3758;DHT22;1894;51.038;13.692;2022-08-19T03:21:43;21.40;99.90
3758;DHT22;1894;51.038;13.692;2022-08-19T03:24:14;21.30;99.90
3758;DHT22;1894;51.038;13.692;2022-08-19T03:26:43;21.30;99.90
3758;DHT22;1894;51.038;13.692;2022-08-19T03:29:11;21.40;99.90
3758;DHT22;1894;51.038;13.692;2022-08-19T03:31:40;21.40;99.90
3758;DHT22;1894;51.038;13.692;2022-08-19T03:34:27;21.40;99.90
3758;DHT22;1894;51.038;13.692;2022-08-19T03:36:57;21.40;99.90
3758;DHT22;1894;51.038;13.692;2022-08-19T03:39:25;21.30;99.90
3758;DHT22;1894;51.038;13.692;2022-08-19T03:41:54;21.40;99.90
3758;DHT22;1894;51.038;13.692;2022-08-19T03:44:46;21.40;99.90
3758;DHT22;1894;51.038;13.692;2022-08-19T03:47:13;21.50;99.90
3758;DHT22;1894;51.038;13.692;2022-08-19T03:49:44;21.40;99.90
3758;DHT22;1894;51.038;13.692;2022-08-19T03:52:11;21.40;99.90
3758;DHT22;1894;51.038;13.692;2022-08-19T03:54:38;21.30;99.90
3758;DHT22;1894;51.038;13.692;2022-08-19T03:57:06;21.40;99.90
3758;DHT22;1894;51.038;13.692;2022-08-19T03:59:35;21.40;99.90
3758;DHT22;1894;51.038;13.692;2022-08-19T04:02:07;21.40;99.90
3758;DHT22;1894;51.038;13.692;2022-08-19T04:04:37;21.50;99.90
3758;DHT22;1894;51.038;13.692;2022-08-19T04:07:05;21.40;99.90
3758;DHT22;1894;51.038;13.692;2022-08-19T04:09:34;21.30;99.90
3758;DHT22;1894;51.038;13.692;2022-08-19T04:12:01;21.30;99.90
3758;DHT22;1894;51.038;13.692;2022-08-19T04:14:29;21.50;99.90
3758;DHT22;1894;51.038;13.692;2022-08-19T04:17:02;21.50;99.90
3758;DHT22;1894;51.038;13.692;2022-08-19T04:19:33;21.60;99.90
3758;DHT22;1894;51.038;13.692;2022-08-19T04:22:00;21.60;99.90
3758;DHT22;1894;51.038;13.692;2022-08-19T04:24:27;21.50;99.90
3758;DHT22;1894;51.038;13.692;2022-08-19T04:26:54;21.50;99.90
3758;DHT22;1894;51.038;13.692;2022-08-19T04:29:24;21.50;99.90
3758;DHT22;1894;51.038;13.692;2022-08-19T04:31:54;21.50;99.90
3758;DHT22;1894;51.038;13.692;2022-08-19T04:34:23;21.30;99.90
3758;DHT22;1894;51.038;13.692;2022-08-19T04:36:52;21.50;99.90
3758;DHT22;1894;51.038;13.692;2022-08-19T04:39:22;21.50;99.90
3758;DHT22;1894;51.038;13.692;2022-08-19T04:42:10;21.40;99.90
3758;DHT22;1894;51.038;13.692;2022-08-19T04:44:57;21.50;99.90
3758;DHT22;1894;51.038;13.692;2022-08-19T04:47:26;21.50;99.90
3758;DHT22;1894;51.038;13.692;2022-08-19T04:50:13;21.50;99.90
3758;DHT22;1894;51.038;13.692;2022-08-19T04:52:43;21.50;99.90
3758;DHT22;1894;51.038;13.692;2022-08-19T04:55:11;21.40;99.90
3758;DHT22;1894;51.038;13.692;2022-08-19T04:57:39;21.40;99.90
3758;DHT22;1894;51.038;13.692;2022-08-19T05:00:11;21.30;99.90
3758;DHT22;1894;51.038;13.692;2022-08-19T05:02:38;21.30;99.90
3758;DHT22;1894;51.038;13.692;2022-08-19T05:05:05;21.20;99.90
3758;DHT22;1894;51.038;13.692;2022-08-19T05:07:33;21.30;99.90
3758;DHT22;1894;51.038;13.692;2022-08-19T05:10:01;21.30;99.90
3758;DHT22;1894;51.038;13.692;2022-08-19T05:12:28;21.30;99.90
3758;DHT22;1894;51.038;13.692;2022-08-19T05:14:57;21.30;99.90
3758;DHT22;1894;51.038;13.692;2022-08-19T05:17:25;21.30;99.90
3758;DHT22;1894;51.038;13.692;2022-08-19T05:19:56;21.30;99.90
3758;DHT22;1894;51.038;13.692;2022-08-19T05:22:43;21.20;99.90
3758;DHT22;1894;51.038;13.692;2022-08-19T05:25:15;21.30;99.90
3758;DHT22;1894;51.038;13.692;2022-08-19T05:27:45;21.30;99.90
3758;DHT22;1894;51.038;13.692;2022-08-19T05:30:12;21.30;99.90
3758;DHT22;1894;51.038;13.692;2022-08-19T05:32:40;21.40;99.90
3758;DHT22;1894;51.038;13.692;2022-08-19T05:35:07;21.40;99.90
3758;DHT22;1894;51.038;13.692;2022-08-19T05:37:35;21.30;99.90
3758;DHT22;1894;51.038;13.692;2022-08-19T05:40:02;21.00;99.90
3758;DHT22;1894;51.038;13.692;2022-08-19T05:42:30;21.10;99.90
3758;DHT22;1894;51.038;13.692;2022-08-19T05:44:57;21.20;99.90
3758;DHT22;1894;51.038;13.692;2022-08-19T05:47:24;21.20;99.90
3758;DHT22;1894;51.038;13.692;2022-08-19T05:49:52;21.30;99.90
3758;DHT22;1894;51.038;13.692;2022-08-19T05:52:19;21.30;99.90
3758;DHT22;1894;51.038;13.692;2022-08-19T05:54:53;21.20;99.90
3758;DHT22;1894;51.038;13.692;2022-08-19T05:57:23;21.30;99.90
3758;DHT22;1894;51.038;13.692;2022-08-19T05:59:51;21.30;99.90
3758;DHT22;1894;51.038;13.692;2022-08-19T06:02:26;21.10;99.90
3758;DHT22;1894;51.038;13.692;2022-08-19T06:04:53;21.10;99.90
3758;DHT22;1894;51.038;13.692;2022-08-19T06:07:20;21.10;99.90
3758;DHT22;1894;51.038;13.692;2022-08-19T06:09:47;21.10;99.90
3758;DHT22;1894;51.038;13.692;2022-08-19T06:12:31;21.20;99.90
3758;DHT22;1894;51.038;13.692;2022-08-19T06:15:09;21.30;99.90
3758;DHT22;1894;51.038;13.692;2022-08-19T06:17:37;21.30;99.90
3758;DHT22;1894;51.038;13.692;2022-08-19T06:20:09;21.30;99.90
3758;DHT22;1894;51.038;13.692;2022-08-19T06:22:44;21.50;99.90
3758;DHT22;1894;51.038;13.692;2022-08-19T06:25:12;21.50;99.90
3758;DHT22;1894;51.038;13.692;2022-08-19T06:27:40;21.40;99.90
3758;DHT22;1894;51.038;13.692;2022-08-19T06:30:27;21.30;99.90
3758;DHT22;1894;51.038;13.692;2022-08-19T06:32:54;21.50;99.90
3758;DHT22;1894;51.038;13.692;2022-08-19T06:35:21;21.50;99.90
3758;DHT22;1894;51.038;13.692;2022-08-19T06:37:49;21.60;99.90
3758;DHT22;1894;51.038;13.692;2022-08-19T06:40:16;21.50;99.90
3758;DHT22;1894;51.038;13.692;2022-08-19T06:42:43;21.50;99.90
3758;DHT22;1894;51.038;13.692;2022-08-19T06:45:22;21.60;99.90
3758;DHT22;1894;51.038;13.692;2022-08-19T06:47:51;21.60;99.90
3758;DHT22;1894;51.038;13.692;2022-08-19T06:50:25;21.50;99.90
3758;DHT22;1894;51.038;13.692;2022-08-19T06:52:52;21.50;99.90
3758;DHT22;1894;51.038;13.692;2022-08-19T06:55:21;21.40;99.90
3758;DHT22;1894;51.038;13.692;2022-08-19T06:57:48;21.50;99.90
3758;DHT22;1894;51.038;13.692;2022-08-19T07:00:17;21.60;99.90
3758;DHT22;1894;51.038;13.692;2022-08-19T07:02:45;21.70;99.90
3758;DHT22;1894;51.038;13.692;2022-08-19T07:05:23;21.50;99.90
3758;DHT22;1894;51.038;13.692;2022-08-19T07:07:50;21.50;99.90
3758;DHT22;1894;51.038;13.692;2022-08-19T07:10:17;21.50;99.90
3758;DHT22;1894;51.038;13.692;2022-08-19T07:12:45;21.40;99.90
3758;DHT22;1894;51.038;13.692;2022-08-19T07:15:13;21.30;99.90
3758;DHT22;1894;51.038;13.692;2022-08-19T07:17:40;21.10;99.90
3758;DHT22;1894;51.038;13.692;2022-08-19T07:20:08;21.20;99.90
3758;DHT22;1894;51.038;13.692;2022-08-19T07:22:39;21.00;99.90
3758;DHT22;1894;51.038;13.692;2022-08-19T07:25:08;20.90;99.90
3758;DHT22;1894;51.038;13.692;2022-08-19T07:27:36;21.20;99.90
3758;DHT22;1894;51.038;13.692;2022-08-19T07:30:07;21.30;99.90
3758;DHT22;1894;51.038;13.692;2022-08-19T07:32:38;21.40;99.90
3758;DHT22;1894;51.038;13.692;2022-08-19T07:35:06;21.20;99.90
3758;DHT22;1894;51.038;13.692;2022-08-19T07:37:34;21.20;99.90
3758;DHT22;1894;51.038;13.692;2022-08-19T07:40:03;21.40;99.90
3758;DHT22;1894;51.038;13.692;2022-08-19T07:42:31;21.20;99.90
3758;DHT22;1894;51.038;13.692;2022-08-19T07:44:58;21.00;99.90
3758;DHT22;1894;51.038;13.692;2022-08-19T07:47:25;21.00;99.90
3758;DHT22;1894;51.038;13.692;2022-08-19T07:50:12;21.00;99.90
3758;DHT22;1894;51.038;13.692;2022-08-19T07:52:40;20.90;99.90
3758;DHT22;1894;51.038;13.692;2022-08-19T07:55:08;20.90;99.90
3758;DHT22;1894;51.038;13.692;2022-08-19T07:57:57;20.90;99.90
3758;DHT22;1894;51.038;13.692;2022-08-19T08:00:24;20.90;99.90
3758;DHT22;1894;51.038;13.692;2022-08-19T08:02:52;20.80;99.90
3758;DHT22;1894;51.038;13.692;2022-08-19T08:05:23;20.90;99.90
3758;DHT22;1894;51.038;13.692;2022-08-19T08:08:11;21.00;99.90
3758;DHT22;1894;51.038;13.692;2022-08-19T08:10:58;21.00;99.90
3758;DHT22;1894;51.038;13.692;2022-08-19T08:13:26;21.00;99.90
3758;DHT22;1894;51.038;13.692;2022-08-19T08:15:55;21.00;99.90
3758;DHT22;1894;51.038;13.692;2022-08-19T08:18:24;21.10;99.90
3758;DHT22;1894;51.038;13.692;2022-08-19T08:20:56;21.10;99.90
3758;DHT22;1894;51.038;13.692;2022-08-19T08:23:24;21.20;99.90
3758;DHT22;1894;51.038;13.692;2022-08-19T08:25:57;21.40;99.90
3758;DHT22;1894;51.038;13.692;2022-08-19T08:28:25;21.50;99.90
3758;DHT22;1894;51.038;13.692;2022-08-19T08:30:56;21.60;99.90
3758;DHT22;1894;51.038;13.692;2022-08-19T08:33:26;21.50;99.90
3758;DHT22;1894;51.038;13.692;2022-08-19T08:36:04;21.60;99.90
3758;DHT22;1894;51.038;13.692;2022-08-19T08:38:32;21.50;99.90
3758;DHT22;1894;51.038;13.692;2022-08-19T08:41:43;21.30;99.90
3758;DHT22;1894;51.038;13.692;2022-08-19T08:44:17;21.30;99.90
3758;DHT22;1894;51.038;13.692;2022-08-19T08:47:01;21.30;99.90
3758;DHT22;1894;51.038;13.692;2022-08-19T08:49:34;21.20;99.90
3758;DHT22;1894;51.038;13.692;2022-08-19T08:52:18;21.10;99.90
3758;DHT22;1894;51.038;13.692;2022-08-19T08:54:48;21.30;99.90
3758;DHT22;1894;51.038;13.692;2022-08-19T08:57:39;21.30;99.90
3758;DHT22;1894;51.038;13.692;2022-08-19T09:00:15;21.60;99.90
3758;DHT22;1894;51.038;13.692;2022-08-19T09:02:44;21.90;99.90
3758;DHT22;1894;51.038;13.692;2022-08-19T09:05:18;22.30;99.90
3758;DHT22;1894;51.038;13.692;2022-08-19T09:16:17;23.00;99.90
3758;DHT22;1894;51.038;13.692;2022-08-19T09:18:58;23.20;99.90
3758;DHT22;1894;51.038;13.692;2022-08-19T09:21:28;23.20;99.90
3758;DHT22;1894;51.038;13.692;2022-08-19T09:23:59;23.10;99.90
3758;DHT22;1894;51.038;13.692;2022-08-19T09:26:29;22.60;99.90
3758;DHT22;1894;51.038;13.692;2022-08-19T09:29:18;22.70;99.90
3758;DHT22;1894;51.038;13.692;2022-08-19T09:31:48;22.80;99.90
3758;DHT22;1894;51.038;13.692;2022-08-19T09:34:16;23.00;99.90
3758;DHT22;1894;51.038;13.692;2022-08-19T09:36:48;22.90;99.90
3758;DHT22;1894;51.038;13.692;2022-08-19T09:39:19;22.80;99.90
3758;DHT22;1894;51.038;13.692;2022-08-19T09:41:46;22.80;99.90
3758;DHT22;1894;51.038;13.692;2022-08-19T09:44:15;22.50;99.90
3758;DHT22;1894;51.038;13.692;2022-08-19T09:46:43;22.50;99.90
3758;DHT22;1894;51.038;13.692;2022-08-19T09:49:15;22.60;99.90
3758;DHT22;1894;51.038;13.692;2022-08-19T09:51:45;22.90;99.90
3758;DHT22;1894;51.038;13.692;2022-08-19T09:54:17;23.30;99.90
3758;DHT22;1894;51.038;13.692;2022-08-19T09:56:52;23.50;99.90
3758;DHT22;1894;51.038;13.692;2022-08-19T09:59:19;23.80;99.90
3758;DHT22;1894;51.038;13.692;2022-08-19T10:01:46;24.10;99.90
3758;DHT22;1894;51.038;13.692;2022-08-19T10:04:13;23.90;99.90
3758;DHT22;1894;51.038;13.692;2022-08-19T10:06:49;23.50;99.90
3758;DHT22;1894;51.038;13.692;2022-08-19T10:09:19;23.00;99.90
3758;DHT22;1894;51.038;13.692;2022-08-19T10:12:02;22.90;99.90
3758;DHT22;1894;51.038;13.692;2022-08-19T10:14:30;22.80;99.90
3758;DHT22;1894;51.038;13.692;2022-08-19T10:16:58;23.50;99.90
3758;DHT22;1894;51.038;13.692;2022-08-19T10:19:30;23.50;99.90
3758;DHT22;1894;51.038;13.692;2022-08-19T10:22:04;23.90;99.90
3758;DHT22;1894;51.038;13.692;2022-08-19T10:24:37;24.10;99.90
3758;DHT22;1894;51.038;13.692;2022-08-19T10:27:07;24.10;99.90
3758;DHT22;1894;51.038;13.692;2022-08-19T10:29:34;24.60;99.90
3758;DHT22;1894;51.038;13.692;2022-08-19T10:32:03;25.10;99.90
3758;DHT22;1894;51.038;13.692;2022-08-19T10:34:39;25.10;99.90
3758;DHT22;1894;51.038;13.692;2022-08-19T10:37:15;24.70;99.90
3758;DHT22;1894;51.038;13.692;2022-08-19T10:39:54;24.00;99.90
3758;DHT22;1894;51.038;13.692;2022-08-19T10:42:21;23.90;99.90
3758;DHT22;1894;51.038;13.692;2022-08-19T10:44:48;24.30;99.90
3758;DHT22;1894;51.038;13.692;2022-08-19T10:47:22;24.90;99.90
3758;DHT22;1894;51.038;13.692;2022-08-19T10:49:53;24.90;99.90
3758;DHT22;1894;51.038;13.692;2022-08-19T10:52:41;25.40;99.90
3758;DHT22;1894;51.038;13.692;2022-08-19T10:55:21;25.70;99.90
3758;DHT22;1894;51.038;13.692;2022-08-19T10:58:12;25.60;99.90
3758;DHT22;1894;51.038;13.692;2022-08-19T11:00:40;25.20;99.90
3758;DHT22;1894;51.038;13.692;2022-08-19T11:03:07;24.90;99.90
3758;DHT22;1894;51.038;13.692;2022-08-19T11:05:35;24.70;99.90
3758;DHT22;1894;51.038;13.692;2022-08-19T11:08:07;24.60;99.90
3758;DHT22;1894;51.038;13.692;2022-08-19T11:10:50;24.50;99.90
3758;DHT22;1894;51.038;13.692;2022-08-19T11:13:17;24.80;99.90
3758;DHT22;1894;51.038;13.692;2022-08-19T11:15:44;24.90;99.90
3758;DHT22;1894;51.038;13.692;2022-08-19T11:18:14;24.50;99.90
3758;DHT22;1894;51.038;13.692;2022-08-19T11:20:44;24.10;99.90
3758;DHT22;1894;51.038;13.692;2022-08-19T11:23:11;23.80;99.90
3758;DHT22;1894;51.038;13.692;2022-08-19T11:25:38;23.70;99.90
3758;DHT22;1894;51.038;13.692;2022-08-19T11:28:05;23.80;99.90
3758;DHT22;1894;51.038;13.692;2022-08-19T11:30:32;23.90;99.90
3758;DHT22;1894;51.038;13.692;2022-08-19T11:33:00;23.60;99.90
3758;DHT22;1894;51.038;13.692;2022-08-19T11:35:27;23.80;99.90
3758;DHT22;1894;51.038;13.692;2022-08-19T11:37:55;24.00;99.90
3758;DHT22;1894;51.038;13.692;2022-08-19T11:40:24;24.00;99.90
3758;DHT22;1894;51.038;13.692;2022-08-19T11:42:51;24.20;99.90
3758;DHT22;1894;51.038;13.692;2022-08-19T11:45:26;24.30;99.90
3758;DHT22;1894;51.038;13.692;2022-08-19T11:47:54;24.40;99.90
3758;DHT22;1894;51.038;13.692;2022-08-19T11:50:22;24.30;99.90
3758;DHT22;1894;51.038;13.692;2022-08-19T11:52:52;24.30;99.90
3758;DHT22;1894;51.038;13.692;2022-08-19T11:55:23;23.60;99.90
3758;DHT22;1894;51.038;13.692;2022-08-19T11:57:50;23.20;99.90
3758;DHT22;1894;51.038;13.692;2022-08-19T12:00:17;23.30;99.90
3758;DHT22;1894;51.038;13.692;2022-08-19T12:02:45;23.60;99.90
3758;DHT22;1894;51.038;13.692;2022-08-19T12:05:12;23.60;99.90
3758;DHT22;1894;51.038;13.692;2022-08-19T12:07:40;23.50;99.90
3758;DHT22;1894;51.038;13.692;2022-08-19T12:10:08;23.50;99.90
3758;DHT22;1894;51.038;13.692;2022-08-19T12:12:37;23.40;99.90
3758;DHT22;1894;51.038;13.692;2022-08-19T12:15:10;23.30;99.90
3758;DHT22;1894;51.038;13.692;2022-08-19T12:17:37;23.20;99.90
3758;DHT22;1894;51.038;13.692;2022-08-19T12:20:05;23.10;99.90
3758;DHT22;1894;51.038;13.692;2022-08-19T12:22:33;23.10;99.90
3758;DHT22;1894;51.038;13.692;2022-08-19T12:25:01;23.20;99.90
3758;DHT22;1894;51.038;13.692;2022-08-19T12:27:29;23.30;99.90
3758;DHT22;1894;51.038;13.692;2022-08-19T12:30:09;23.10;99.90
3758;DHT22;1894;51.038;13.692;2022-08-19T12:32:36;23.40;99.90
3758;DHT22;1894;51.038;13.692;2022-08-19T12:35:04;23.60;99.90
3758;DHT22;1894;51.038;13.692;2022-08-19T12:37:31;23.20;99.90
3758;DHT22;1894;51.038;13.692;2022-08-19T12:39:59;23.30;99.90
3758;DHT22;1894;51.038;13.692;2022-08-19T12:42:26;23.30;99.90
3758;DHT22;1894;51.038;13.692;2022-08-19T12:44:53;23.20;99.90
3758;DHT22;1894;51.038;13.692;2022-08-19T12:47:20;23.20;99.90
3758;DHT22;1894;51.038;13.692;2022-08-19T12:49:48;23.30;99.90
3758;DHT22;1894;51.038;13.692;2022-08-19T12:52:22;23.10;99.90
3758;DHT22;1894;51.038;13.692;2022-08-19T12:54:51;23.10;99.90
3758;DHT22;1894;51.038;13.692;2022-08-19T12:57:22;23.10;99.90
3758;DHT22;1894;51.038;13.692;2022-08-19T13:00:09;23.20;99.90
3758;DHT22;1894;51.038;13.692;2022-08-19T13:02:43;23.30;99.90
3758;DHT22;1894;51.038;13.692;2022-08-19T13:05:15;23.20;99.90
3758;DHT22;1894;51.038;13.692;2022-08-19T13:07:43;23.50;99.90
3758;DHT22;1894;51.038;13.692;2022-08-19T13:10:13;23.70;99.90
3758;DHT22;1894;51.038;13.692;2022-08-19T13:12:43;23.40;99.90
3758;DHT22;1894;51.038;13.692;2022-08-19T13:15:13;23.30;99.90
3758;DHT22;1894;51.038;13.692;2022-08-19T13:17:44;23.50;99.90
3758;DHT22;1894;51.038;13.692;2022-08-19T13:20:11;23.60;99.90
3758;DHT22;1894;51.038;13.692;2022-08-19T13:22:38;23.40;99.90
3758;DHT22;1894;51.038;13.692;2022-08-19T13:25:06;23.60;99.90
3758;DHT22;1894;51.038;13.692;2022-08-19T13:27:34;23.30;99.90
3758;DHT22;1894;51.038;13.692;2022-08-19T13:30:03;23.40;99.90
3758;DHT22;1894;51.038;13.692;2022-08-19T13:32:49;23.40;99.90
3758;DHT22;1894;51.038;13.692;2022-08-19T13:35:35;23.40;99.90
3758;DHT22;1894;51.038;13.692;2022-08-19T13:38:02;23.40;99.90
3758;DHT22;1894;51.038;13.692;2022-08-19T13:40:38;22.80;99.90
3758;DHT22;1894;51.038;13.692;2022-08-19T13:43:08;22.90;99.90
3758;DHT22;1894;51.038;13.692;2022-08-19T13:45:51;22.70;99.90
3758;DHT22;1894;51.038;13.692;2022-08-19T13:48:20;22.40;99.90
3758;DHT22;1894;51.038;13.692;2022-08-19T13:50:48;22.40;99.90
3758;DHT22;1894;51.038;13.692;2022-08-19T13:53:15;22.50;99.90
3758;DHT22;1894;51.038;13.692;2022-08-19T13:55:44;22.60;99.90
3758;DHT22;1894;51.038;13.692;2022-08-19T13:58:12;22.50;99.90
3758;DHT22;1894;51.038;13.692;2022-08-19T14:00:43;22.30;99.90
3758;DHT22;1894;51.038;13.692;2022-08-19T14:03:10;22.40;99.90
3758;DHT22;1894;51.038;13.692;2022-08-19T14:05:38;22.60;99.90
3758;DHT22;1894;51.038;13.692;2022-08-19T14:08:06;22.80;99.90
3758;DHT22;1894;51.038;13.692;2022-08-19T14:10:34;22.60;99.90
3758;DHT22;1894;51.038;13.692;2022-08-19T14:13:02;22.60;99.90
3758;DHT22;1894;51.038;13.692;2022-08-19T14:15:30;22.70;99.90
3758;DHT22;1894;51.038;13.692;2022-08-19T14:17:57;22.80;99.90
3758;DHT22;1894;51.038;13.692;2022-08-19T14:20:25;22.70;99.90
3758;DHT22;1894;51.038;13.692;2022-08-19T14:22:53;22.40;99.90
3758;DHT22;1894;51.038;13.692;2022-08-19T14:25:27;22.30;99.90
3758;DHT22;1894;51.038;13.692;2022-08-19T14:27:54;22.40;99.90
3758;DHT22;1894;51.038;13.692;2022-08-19T14:30:28;22.40;99.90
3758;DHT22;1894;51.038;13.692;2022-08-19T14:32:57;22.40;99.90
3758;DHT22;1894;51.038;13.692;2022-08-19T14:35:29;22.40;99.90
3758;DHT22;1894;51.038;13.692;2022-08-19T14:37:57;22.30;99.90
3758;DHT22;1894;51.038;13.692;2022-08-19T14:40:27;22.40;99.90
3758;DHT22;1894;51.038;13.692;2022-08-19T14:42:56;22.50;99.90
3758;DHT22;1894;51.038;13.692;2022-08-19T14:45:28;22.70;99.90
3758;DHT22;1894;51.038;13.692;2022-08-19T14:47:55;22.60;99.90
3758;DHT22;1894;51.038;13.692;2022-08-19T14:50:22;22.50;99.90
3758;DHT22;1894;51.038;13.692;2022-08-19T14:52:49;22.50;99.90
3758;DHT22;1894;51.038;13.692;2022-08-19T14:55:18;22.40;99.90
3758;DHT22;1894;51.038;13.692;2022-08-19T14:57:45;22.30;99.90
3758;DHT22;1894;51.038;13.692;2022-08-19T15:00:13;22.60;99.90
3758;DHT22;1894;51.038;13.692;2022-08-19T15:02:41;22.60;99.90
3758;DHT22;1894;51.038;13.692;2022-08-19T15:05:11;22.70;99.90
3758;DHT22;1894;51.038;13.692;2022-08-19T15:07:39;22.90;99.90
3758;DHT22;1894;51.038;13.692;2022-08-19T15:10:08;22.80;99.90
3758;DHT22;1894;51.038;13.692;2022-08-19T15:12:38;22.70;99.90
3758;DHT22;1894;51.038;13.692;2022-08-19T15:15:11;22.90;99.90
3758;DHT22;1894;51.038;13.692;2022-08-19T15:17:42;22.90;99.90
3758;DHT22;1894;51.038;13.692;2022-08-19T15:20:19;22.90;99.90
3758;DHT22;1894;51.038;13.692;2022-08-19T15:22:46;22.80;99.90
3758;DHT22;1894;51.038;13.692;2022-08-19T15:25:16;22.80;99.90
3758;DHT22;1894;51.038;13.692;2022-08-19T15:27:43;22.80;99.90
3758;DHT22;1894;51.038;13.692;2022-08-19T15:30:11;22.70;99.90
3758;DHT22;1894;51.038;13.692;2022-08-19T15:32:38;22.50;99.90
3758;DHT22;1894;51.038;13.692;2022-08-19T15:35:07;22.50;99.90
3758;DHT22;1894;51.038;13.692;2022-08-19T15:37:34;22.40;99.90
3758;DHT22;1894;51.038;13.692;2022-08-19T15:40:05;22.50;99.90
3758;DHT22;1894;51.038;13.692;2022-08-19T15:42:37;22.30;99.90
3758;DHT22;1894;51.038;13.692;2022-08-19T15:45:05;22.40;99.90
3758;DHT22;1894;51.038;13.692;2022-08-19T15:47:32;22.40;99.90
3758;DHT22;1894;51.038;13.692;2022-08-19T15:50:20;22.40;99.90
3758;DHT22;1894;51.038;13.692;2022-08-19T15:55:24;22.40;99.90
3758;DHT22;1894;51.038;13.692;2022-08-19T15:58:04;22.50;99.90
3758;DHT22;1894;51.038;13.692;2022-08-19T16:01:00;22.60;99.90
3758;DHT22;1894;51.038;13.692;2022-08-19T16:03:48;22.70;99.90
3758;DHT22;1894;51.038;13.692;2022-08-19T16:06:53;22.80;99.90
3758;DHT22;1894;51.038;13.692;2022-08-19T16:09:22;22.60;99.90
3758;DHT22;1894;51.038;13.692;2022-08-19T16:12:03;22.70;99.90
3758;DHT22;1894;51.038;13.692;2022-08-19T16:14:32;22.70;99.90
3758;DHT22;1894;51.038;13.692;2022-08-19T16:16:59;22.60;99.90
3758;DHT22;1894;51.038;13.692;2022-08-19T16:19:27;22.70;99.90
3758;DHT22;1894;51.038;13.692;2022-08-19T16:21:55;22.70;99.90